createdAt,value
2018-07-20T00:00:02.017Z,1.80
2018-07-20T00:02:30.282Z,1.80
2018-07-20T00:04:58.565Z,2.47
2018-07-20T00:07:26.823Z,1.70
2018-07-20T00:09:55.413Z,2.60
2018-07-20T00:12:23.667Z,2.30
2018-07-20T00:14:53.588Z,1.77
2018-07-20T00:17:21.892Z,1.80
2018-07-20T00:19:50.108Z,1.87
2018-07-20T00:22:18.372Z,2.07
2018-07-20T00:24:46.702Z,1.87
2018-07-20T00:27:14.957Z,2.13
2018-07-20T00:29:43.356Z,2.10
2018-07-20T00:32:11.357Z,2.10
2018-07-20T00:34:39.632Z,2.03
2018-07-20T00:37:08.009Z,2.00
2018-07-20T00:39:36.249Z,2.00
2018-07-20T00:42:04.247Z,2.40
2018-07-20T00:44:32.519Z,2.60
2018-07-20T00:47:00.768Z,1.90
2018-07-20T00:49:29.035Z,2.00
2018-07-20T00:51:57.844Z,2.17
2018-07-20T00:54:26.134Z,2.00
2018-07-20T00:56:55.214Z,1.80
2018-07-20T00:59:24.484Z,2.60
2018-07-20T01:01:52.839Z,2.40
2018-07-20T01:04:21.067Z,2.23
2018-07-20T01:06:49.321Z,2.30
2018-07-20T01:09:17.603Z,2.20
2018-07-20T01:11:45.603Z,2.00
2018-07-20T01:14:13.869Z,2.13
2018-07-20T01:16:42.144Z,2.03
2018-07-20T01:19:10.358Z,2.20
2018-07-20T01:21:38.669Z,2.27
2018-07-20T01:24:07.016Z,2.23
2018-07-20T01:26:35.324Z,2.27
2018-07-20T01:29:03.581Z,2.47
2018-07-20T01:31:31.864Z,2.17
2018-07-20T01:34:01.067Z,2.53
2018-07-20T01:36:29.357Z,2.10
2018-07-20T01:38:58.366Z,2.43
2018-07-20T01:41:26.700Z,2.40
2018-07-20T01:43:54.911Z,2.50
2018-07-20T01:46:22.928Z,2.40
2018-07-20T01:48:51.152Z,2.20
2018-07-20T01:51:19.196Z,2.70
2018-07-20T01:53:47.463Z,2.30
2018-07-20T01:56:15.732Z,2.27
2018-07-20T01:58:44.001Z,2.33
2018-07-20T02:01:12.214Z,2.40
2018-07-20T02:03:40.503Z,2.33
2018-07-20T02:06:08.732Z,2.47
2018-07-20T02:08:37.175Z,2.10
2018-07-20T02:11:05.440Z,2.53
2018-07-20T02:13:33.403Z,2.33
2018-07-20T02:16:02.829Z,2.13
2018-07-20T02:18:31.049Z,1.83
2018-07-20T02:20:59.682Z,2.30
2018-07-20T02:23:28.041Z,2.33
2018-07-20T02:25:56.327Z,2.40
2018-07-20T02:28:24.626Z,2.70
2018-07-20T02:30:52.655Z,2.33
2018-07-20T02:33:21.515Z,2.60
2018-07-20T02:35:49.720Z,2.27
2018-07-20T02:38:18.015Z,2.20
2018-07-20T02:40:46.309Z,2.63
2018-07-20T02:43:14.326Z,2.77
2018-07-20T02:45:42.632Z,2.30
2018-07-20T02:48:10.911Z,2.23
2018-07-20T02:50:39.236Z,2.70
2018-07-20T02:53:07.583Z,2.30
2018-07-20T02:55:35.850Z,2.60
2018-07-20T02:58:05.488Z,2.10
2018-07-20T03:00:33.796Z,2.70
2018-07-20T03:03:02.148Z,2.43
2018-07-20T03:05:30.444Z,2.63
2018-07-20T03:07:58.748Z,2.60
2018-07-20T03:10:27.075Z,2.33
2018-07-20T03:12:55.120Z,2.23
2018-07-20T03:15:23.349Z,2.50
2018-07-20T03:17:51.570Z,2.43
2018-07-20T03:20:19.861Z,2.40
2018-07-20T03:22:47.891Z,2.90
2018-07-20T03:25:16.177Z,2.80
2018-07-20T03:27:44.464Z,2.93
2018-07-20T03:30:13.027Z,2.60
2018-07-20T03:32:41.422Z,2.60
2018-07-20T03:35:09.973Z,2.73
2018-07-20T03:37:38.227Z,2.57
2018-07-20T03:40:07.718Z,2.70
2018-07-20T03:42:36.012Z,2.67
2018-07-20T03:45:05.093Z,2.23
2018-07-20T03:47:33.455Z,2.53
2018-07-20T03:50:01.743Z,2.27
2018-07-20T03:52:29.967Z,2.47
2018-07-20T03:54:58.344Z,2.47
2018-07-20T03:57:26.615Z,2.03
2018-07-20T03:59:54.899Z,2.43
2018-07-20T04:02:23.189Z,2.40
2018-07-20T04:04:51.447Z,2.47
2018-07-20T04:07:19.727Z,2.40
2018-07-20T04:09:48.079Z,2.30
2018-07-20T04:12:16.315Z,2.07
2018-07-20T04:14:44.607Z,2.33
2018-07-20T04:17:13.195Z,2.23
2018-07-20T04:19:41.451Z,2.50
2018-07-20T04:22:10.700Z,2.57
2018-07-20T04:24:39.001Z,2.60
2018-07-20T04:27:07.228Z,2.17
2018-07-20T04:29:35.807Z,2.33
2018-07-20T04:32:04.112Z,2.50
2018-07-20T04:34:32.081Z,2.30
2018-07-20T04:37:00.372Z,2.20
2018-07-20T04:39:28.640Z,2.57
2018-07-20T04:41:56.880Z,2.67
2018-07-20T04:44:25.166Z,2.33
2018-07-20T04:46:53.432Z,2.63
2018-07-20T04:49:21.781Z,2.30
2018-07-20T04:51:50.020Z,2.57
2018-07-20T04:54:18.247Z,2.30
2018-07-20T04:56:46.489Z,2.40
2018-07-20T04:59:15.998Z,2.70
2018-07-20T05:01:44.323Z,2.27
2018-07-20T05:04:13.049Z,2.43
2018-07-20T05:06:41.395Z,2.13
2018-07-20T05:09:10.325Z,2.40
2018-07-20T05:11:39.340Z,2.33
2018-07-20T05:14:07.636Z,2.67
2018-07-20T05:16:35.979Z,3.00
2018-07-20T05:19:04.303Z,2.57
2018-07-20T05:21:32.576Z,2.90
2018-07-20T05:24:00.911Z,2.57
2018-07-20T05:26:29.179Z,2.70
2018-07-20T05:29:03.963Z,2.93
2018-07-20T05:31:32.247Z,2.73
2018-07-20T05:34:00.486Z,2.27
2018-07-20T05:36:28.471Z,2.43
2018-07-20T05:38:56.724Z,2.50
2018-07-20T05:41:24.684Z,2.63
2018-07-20T05:43:52.965Z,3.07
2018-07-20T05:46:22.112Z,2.77
2018-07-20T05:48:50.361Z,2.47
2018-07-20T05:51:21.984Z,2.37
2018-07-20T05:53:50.228Z,2.47
2018-07-20T05:56:22.059Z,2.67
2018-07-20T05:58:50.053Z,2.63
2018-07-20T06:01:21.842Z,2.57
2018-07-20T06:03:50.136Z,2.73
2018-07-20T06:06:22.138Z,2.37
2018-07-20T06:08:50.197Z,2.90
2018-07-20T06:11:22.248Z,2.17
2018-07-20T06:13:50.506Z,2.63
2018-07-20T06:16:22.356Z,3.30
2018-07-20T06:18:50.704Z,2.60
2018-07-20T06:21:22.635Z,2.43
2018-07-20T06:23:51.049Z,2.80
2018-07-20T06:26:22.968Z,2.70
2018-07-20T06:28:51.200Z,3.20
2018-07-20T06:31:23.021Z,2.73
2018-07-20T06:33:51.239Z,2.70
2018-07-20T06:36:23.580Z,3.10
2018-07-20T06:38:51.870Z,3.10
2018-07-20T06:41:24.546Z,3.00
2018-07-20T06:43:52.835Z,3.30
2018-07-20T06:46:25.296Z,3.10
2018-07-20T06:48:53.553Z,3.90
2018-07-20T06:51:25.172Z,3.93
2018-07-20T06:53:53.445Z,3.43
2018-07-20T06:56:25.360Z,3.50
2018-07-20T06:58:53.342Z,3.23
2018-07-20T07:01:25.517Z,3.57
2018-07-20T07:03:53.520Z,3.77
2018-07-20T07:06:25.391Z,3.77
2018-07-20T07:08:53.660Z,4.03
2018-07-20T07:11:25.836Z,4.10
2018-07-20T07:13:54.077Z,3.50
2018-07-20T07:16:25.856Z,3.47
2018-07-20T07:18:54.072Z,3.20
2018-07-20T07:21:25.883Z,2.93
2018-07-20T07:23:54.167Z,2.87
2018-07-20T07:26:25.609Z,2.83
2018-07-20T07:28:53.914Z,2.80
2018-07-20T07:31:26.341Z,3.07
2018-07-20T07:33:54.592Z,2.90
2018-07-20T07:36:26.719Z,3.17
2018-07-20T07:38:54.990Z,3.07
2018-07-20T07:41:26.729Z,2.60
2018-07-20T07:43:55.025Z,3.03
2018-07-20T07:46:27.249Z,3.20
2018-07-20T07:48:55.569Z,3.00
2018-07-20T07:51:27.197Z,3.07
2018-07-20T07:53:55.459Z,3.10
2018-07-20T07:56:23.491Z,2.77
2018-07-20T07:58:51.762Z,3.10
2018-07-20T08:01:20.058Z,3.10
2018-07-20T08:03:48.359Z,3.57
2018-07-20T08:06:16.647Z,3.00
2018-07-20T08:08:45.686Z,3.10
2018-07-20T08:11:13.971Z,2.90
2018-07-20T08:13:42.214Z,3.10
2018-07-20T08:16:10.472Z,3.03
2018-07-20T08:18:38.684Z,2.93
2018-07-20T08:21:07.479Z,3.20
2018-07-20T08:23:35.853Z,3.33
2018-07-20T08:26:04.127Z,3.23
2018-07-20T08:28:33.466Z,3.43
2018-07-20T08:31:01.711Z,3.37
2018-07-20T08:33:32.657Z,3.63
2018-07-20T08:36:00.916Z,3.53
2018-07-20T08:38:33.123Z,3.80
2018-07-20T08:41:01.374Z,3.60
2018-07-20T08:43:33.713Z,3.57
2018-07-20T08:46:01.956Z,3.93
2018-07-20T08:48:34.160Z,3.83
2018-07-20T08:51:02.416Z,3.87
2018-07-20T08:53:34.607Z,4.03
2018-07-20T08:56:02.889Z,3.97
2018-07-20T08:58:35.538Z,3.83
2018-07-20T09:01:03.862Z,3.67
2018-07-20T09:03:35.251Z,4.10
2018-07-20T09:06:03.588Z,3.87
2018-07-20T09:08:35.489Z,3.30
2018-07-20T09:11:03.875Z,3.27
2018-07-20T09:13:35.905Z,3.63
2018-07-20T09:16:04.120Z,3.20
2018-07-20T09:18:35.590Z,3.20
2018-07-20T09:21:03.931Z,3.43
2018-07-20T09:23:35.789Z,4.13
2018-07-20T09:26:04.066Z,3.53
2018-07-20T09:28:35.620Z,3.30
2018-07-20T09:31:03.947Z,3.40
2018-07-20T09:33:35.859Z,3.37
2018-07-20T09:36:04.153Z,3.20
2018-07-20T09:38:36.776Z,3.50
2018-07-20T09:41:04.772Z,3.30
2018-07-20T09:43:36.740Z,3.00
2018-07-20T09:46:05.011Z,2.67
2018-07-20T09:48:37.145Z,3.00
2018-07-20T09:51:05.716Z,2.53
2018-07-20T09:53:38.143Z,2.97
2018-07-20T09:56:06.456Z,2.40
2018-07-20T09:58:38.244Z,2.50
2018-07-20T10:01:06.568Z,2.63
2018-07-20T10:03:38.872Z,2.53
2018-07-20T10:06:07.142Z,2.73
2018-07-20T10:08:38.794Z,2.50
2018-07-20T10:11:07.067Z,2.10
2018-07-20T10:13:39.409Z,2.63
2018-07-20T10:16:07.680Z,2.57
2018-07-20T10:18:39.627Z,2.80
2018-07-20T10:21:07.916Z,2.43
2018-07-20T10:23:39.676Z,2.50
2018-07-20T10:26:07.958Z,2.30
2018-07-20T10:28:39.977Z,2.40
2018-07-20T10:31:08.302Z,2.70
2018-07-20T10:33:39.054Z,2.43
2018-07-20T10:36:07.511Z,1.93
2018-07-20T10:38:35.513Z,2.43
2018-07-20T10:41:03.882Z,2.40
2018-07-20T10:43:32.132Z,2.60
2018-07-20T10:46:00.448Z,2.17
2018-07-20T10:48:28.748Z,2.47
2018-07-20T10:50:57.025Z,2.60
2018-07-20T10:53:25.256Z,2.63
2018-07-20T10:55:53.551Z,2.67
2018-07-20T10:58:21.767Z,2.40
2018-07-20T11:00:50.036Z,2.47
2018-07-20T11:03:18.034Z,2.37
2018-07-20T11:05:46.970Z,2.20
2018-07-20T11:08:15.253Z,2.13
2018-07-20T11:10:46.278Z,2.27
2018-07-20T11:13:14.567Z,1.90
2018-07-20T11:15:46.320Z,1.90
2018-07-20T11:18:14.604Z,2.30
2018-07-20T11:20:47.079Z,2.40
2018-07-20T11:23:15.347Z,2.60
2018-07-20T11:25:46.952Z,1.60
2018-07-20T11:28:15.240Z,2.10
2018-07-20T11:30:47.139Z,2.10
2018-07-20T11:33:15.419Z,1.90
2018-07-20T11:35:47.866Z,2.13
2018-07-20T11:38:16.501Z,2.23
2018-07-20T11:40:48.024Z,2.30
2018-07-20T11:43:16.279Z,2.20
2018-07-20T11:45:48.159Z,2.20
2018-07-20T11:48:16.446Z,1.83
2018-07-20T11:50:48.673Z,2.00
2018-07-20T11:53:17.688Z,2.17
2018-07-20T11:55:49.160Z,2.00
2018-07-20T11:58:17.436Z,2.00
2018-07-20T12:00:49.533Z,1.93
2018-07-20T12:03:17.817Z,2.20
2018-07-20T12:05:50.036Z,1.87
2018-07-20T12:08:18.359Z,2.13
2018-07-20T12:10:49.461Z,2.30
2018-07-20T12:13:17.720Z,1.70
2018-07-20T12:15:50.153Z,1.90
2018-07-20T12:18:18.423Z,1.67
2018-07-20T12:20:50.807Z,2.10
2018-07-20T12:23:19.080Z,2.30
2018-07-20T12:25:51.341Z,2.30
2018-07-20T12:28:19.660Z,2.20
2018-07-20T12:30:51.804Z,2.60
2018-07-20T12:33:20.784Z,2.50
2018-07-20T12:35:52.532Z,2.40
2018-07-20T12:38:20.903Z,2.67
2018-07-20T12:40:53.631Z,2.30
2018-07-20T12:43:22.000Z,2.77
2018-07-20T12:45:53.851Z,2.43
2018-07-20T12:48:22.092Z,2.50
2018-07-20T12:50:53.740Z,2.43
2018-07-20T12:53:21.975Z,2.70
2018-07-20T12:55:54.060Z,2.80
2018-07-20T12:58:22.349Z,3.07
2018-07-20T13:00:54.464Z,2.90
2018-07-20T13:03:22.767Z,2.50
2018-07-20T13:05:54.976Z,2.50
2018-07-20T13:08:23.653Z,2.67
2018-07-20T13:10:55.464Z,2.40
2018-07-20T13:13:23.446Z,3.00
2018-07-20T13:15:55.142Z,2.83
2018-07-20T13:18:23.456Z,2.70
2018-07-20T13:20:55.632Z,2.67
2018-07-20T13:23:24.623Z,2.77
2018-07-20T13:25:56.834Z,2.63
2018-07-20T13:28:24.875Z,2.97
2018-07-20T13:30:56.621Z,2.97
2018-07-20T13:33:24.910Z,3.10
2018-07-20T13:35:56.782Z,2.93
2018-07-20T13:38:25.044Z,2.97
2018-07-20T13:40:57.628Z,2.70
2018-07-20T13:43:25.930Z,2.30
2018-07-20T13:45:57.694Z,2.73
2018-07-20T13:48:25.975Z,2.60
2018-07-20T13:50:58.438Z,2.10
2018-07-20T13:53:26.667Z,2.13
2018-07-20T13:55:58.433Z,2.27
2018-07-20T13:58:26.707Z,2.47
2018-07-20T14:00:56.229Z,2.50
2018-07-20T14:03:24.554Z,2.67
2018-07-20T14:05:52.876Z,2.47
2018-07-20T14:08:21.237Z,2.73
2018-07-20T14:10:49.518Z,2.60
2018-07-20T14:13:17.548Z,2.60
2018-07-20T14:15:45.883Z,2.37
2018-07-20T14:18:14.161Z,2.50
2018-07-20T14:20:42.465Z,2.30
2018-07-20T14:23:10.693Z,2.50
2018-07-20T14:25:38.958Z,2.70
2018-07-20T14:28:07.383Z,3.43
2018-07-20T14:30:35.412Z,2.73
2018-07-20T14:33:03.744Z,2.90
2018-07-20T14:35:31.748Z,2.87
2018-07-20T14:38:02.243Z,3.30
2018-07-20T14:40:30.533Z,3.50
2018-07-20T14:43:02.458Z,3.97
2018-07-20T14:45:30.677Z,3.23
2018-07-20T14:48:02.379Z,3.90
2018-07-20T14:50:30.670Z,3.83
2018-07-20T14:53:03.086Z,3.97
2018-07-20T14:55:31.355Z,3.50
2018-07-20T14:58:02.574Z,3.60
2018-07-20T15:00:30.915Z,2.97
2018-07-20T15:03:03.136Z,3.00
2018-07-20T15:05:31.400Z,3.10
2018-07-20T15:08:03.384Z,2.73
2018-07-20T15:10:31.715Z,3.33
2018-07-20T15:13:03.611Z,3.37
2018-07-20T15:15:31.925Z,3.03
2018-07-20T15:18:04.568Z,2.90
2018-07-20T15:20:32.543Z,3.13
2018-07-20T15:23:04.472Z,3.20
2018-07-20T15:25:32.728Z,3.27
2018-07-20T15:28:04.975Z,2.90
2018-07-20T15:30:33.267Z,3.30
2018-07-20T15:33:05.611Z,3.00
2018-07-20T15:35:33.864Z,3.37
2018-07-20T15:38:05.731Z,3.07
2018-07-20T15:40:33.782Z,3.50
2018-07-20T15:43:09.274Z,3.03
2018-07-20T15:45:37.555Z,3.23
2018-07-20T15:48:09.365Z,3.10
2018-07-20T15:50:37.632Z,3.00
2018-07-20T15:53:37.677Z,3.20
2018-07-20T15:55:37.131Z,3.30
2018-07-20T15:58:08.452Z,3.10
2018-07-20T16:00:36.448Z,3.00
2018-07-20T16:03:08.515Z,3.10
2018-07-20T16:05:36.796Z,2.77
2018-07-20T16:08:08.619Z,2.90
2018-07-20T16:10:37.665Z,3.00
2018-07-20T16:13:09.882Z,2.70
2018-07-20T16:15:38.235Z,3.23
2018-07-20T16:18:09.841Z,3.20
2018-07-20T16:20:38.124Z,3.00
2018-07-20T16:23:10.003Z,3.07
2018-07-20T16:25:38.332Z,2.53
2018-07-20T16:28:10.654Z,3.50
2018-07-20T16:30:38.956Z,2.80
2018-07-20T16:33:11.012Z,3.00
2018-07-20T16:35:39.280Z,3.13
2018-07-20T16:38:11.048Z,2.53
2018-07-20T16:40:39.320Z,2.80
2018-07-20T16:43:11.931Z,2.97
2018-07-20T16:45:40.232Z,2.40
2018-07-20T16:48:12.433Z,2.60
2018-07-20T16:50:40.684Z,2.67
2018-07-20T16:53:12.358Z,2.40
2018-07-20T16:55:40.604Z,2.73
2018-07-20T16:58:12.669Z,2.47
2018-07-20T17:00:41.024Z,2.57
2018-07-20T17:03:12.881Z,2.60
2018-07-20T17:05:41.160Z,2.60
2018-07-20T17:08:13.238Z,2.40
2018-07-20T17:10:41.625Z,2.60
2018-07-20T17:13:13.409Z,2.77
2018-07-20T17:15:41.691Z,2.23
2018-07-20T17:18:13.594Z,2.20
2018-07-20T17:20:41.619Z,2.90
2018-07-20T17:23:13.493Z,1.97
2018-07-20T17:25:41.765Z,2.80
2018-07-20T17:28:13.283Z,2.40
2018-07-20T17:30:41.241Z,2.40
2018-07-20T17:33:11.611Z,2.33
2018-07-20T17:35:40.026Z,2.43
2018-07-20T17:38:08.306Z,2.57
2018-07-20T17:40:36.620Z,2.30
2018-07-20T17:43:04.922Z,2.30
2018-07-20T17:45:33.193Z,2.47
2018-07-20T17:48:01.475Z,2.33
2018-07-20T17:50:29.782Z,2.30
2018-07-20T17:52:58.112Z,2.60
2018-07-20T17:55:26.107Z,2.87
2018-07-20T17:57:54.376Z,2.70
2018-07-20T18:00:22.595Z,2.30
2018-07-20T18:02:50.856Z,2.40
2018-07-20T18:05:19.204Z,2.57
2018-07-20T18:07:47.451Z,2.97
2018-07-20T18:10:18.736Z,2.43
2018-07-20T18:12:46.729Z,2.37
2018-07-20T18:15:18.802Z,2.62
2018-07-20T18:17:47.097Z,2.90
2018-07-20T18:20:18.108Z,2.53
2018-07-20T18:22:46.319Z,2.30
2018-07-20T18:25:18.783Z,2.07
2018-07-20T18:27:47.088Z,2.20
2018-07-20T18:30:18.840Z,2.50
2018-07-20T18:32:47.099Z,2.70
2018-07-20T18:35:18.619Z,2.23
2018-07-20T18:37:46.952Z,2.40
2018-07-20T18:40:18.958Z,2.47
2018-07-20T18:42:47.239Z,2.73
2018-07-20T18:45:19.314Z,2.63
2018-07-20T18:47:47.543Z,2.50
2018-07-20T18:50:15.836Z,2.70
2018-07-20T18:52:44.100Z,2.57
2018-07-20T18:55:12.076Z,2.90
2018-07-20T18:57:40.363Z,2.73
2018-07-20T19:00:09.127Z,2.47
2018-07-20T19:02:44.098Z,2.57
2018-07-20T19:05:12.443Z,2.70
2018-07-20T19:07:40.816Z,2.77
2018-07-20T19:10:09.138Z,2.83
2018-07-20T19:12:37.349Z,3.40
2018-07-20T19:15:05.667Z,2.80
2018-07-20T19:17:33.939Z,2.87
2018-07-20T19:20:01.923Z,3.07
2018-07-20T19:22:29.918Z,3.80
2018-07-20T19:25:01.221Z,3.37
2018-07-20T19:27:29.476Z,3.00
2018-07-20T19:30:01.183Z,3.27
2018-07-20T19:32:29.163Z,3.47
2018-07-20T19:35:00.853Z,3.10
2018-07-20T19:37:29.091Z,3.47
2018-07-20T19:40:00.361Z,3.20
2018-07-20T19:42:28.580Z,3.33
2018-07-20T19:45:01.024Z,3.17
2018-07-20T19:47:29.268Z,3.10
2018-07-20T19:50:01.141Z,3.20
2018-07-20T19:52:29.469Z,2.97
2018-07-20T19:55:01.328Z,3.30
2018-07-20T19:57:29.597Z,3.53
2018-07-20T20:00:01.147Z,3.27
2018-07-20T20:02:29.219Z,3.13
2018-07-20T20:04:59.664Z,2.97
2018-07-20T20:07:28.564Z,3.07
2018-07-20T20:09:56.769Z,3.90
2018-07-20T20:12:25.041Z,3.77
2018-07-20T20:14:53.305Z,3.27
2018-07-20T20:17:21.262Z,3.27
2018-07-20T20:19:49.535Z,3.93
2018-07-20T20:22:17.782Z,3.50
2018-07-20T20:24:46.076Z,3.33
2018-07-20T20:27:14.339Z,3.10
2018-07-20T20:29:42.709Z,3.70
2018-07-20T20:32:10.970Z,3.10
2018-07-20T20:34:39.260Z,3.00
2018-07-20T20:37:07.332Z,3.07
2018-07-20T20:39:35.554Z,3.10
2018-07-20T20:42:03.847Z,2.97
2018-07-20T20:44:32.071Z,3.10
2018-07-20T20:47:00.338Z,2.87
2018-07-20T20:49:32.508Z,3.17
2018-07-20T20:52:00.475Z,3.27
2018-07-20T20:54:28.544Z,2.97
2018-07-20T20:56:56.831Z,3.60
2018-07-20T20:59:25.984Z,3.40
2018-07-20T21:01:54.050Z,3.40
2018-07-20T21:04:22.330Z,3.20
2018-07-20T21:06:50.576Z,3.07
2018-07-20T21:09:18.836Z,3.60
2018-07-20T21:11:47.142Z,3.23
2018-07-20T21:14:15.423Z,3.00
2018-07-20T21:16:43.680Z,2.97
2018-07-20T21:19:11.715Z,3.43
2018-07-20T21:21:39.996Z,3.20
2018-07-20T21:24:08.264Z,3.53
2018-07-20T21:26:36.582Z,3.40
2018-07-20T21:29:04.716Z,3.40
2018-07-20T21:31:36.337Z,3.10
2018-07-20T21:34:04.597Z,3.57
2018-07-20T21:36:32.878Z,2.97
2018-07-20T21:39:01.272Z,2.77
2018-07-20T21:41:29.519Z,3.33
2018-07-20T21:43:57.506Z,3.13
2018-07-20T21:46:25.793Z,3.13
2018-07-20T21:48:54.074Z,2.73
2018-07-20T21:51:22.307Z,3.53
2018-07-20T21:53:50.584Z,3.37
2018-07-20T21:56:18.873Z,3.03
2018-07-20T21:58:47.143Z,3.10
2018-07-20T22:01:15.404Z,3.33
2018-07-20T22:03:43.692Z,3.87
2018-07-20T22:06:11.960Z,3.33
2018-07-20T22:08:40.205Z,3.70
2018-07-20T22:11:08.507Z,3.43
2018-07-20T22:13:39.009Z,3.63
2018-07-20T22:16:07.352Z,2.97
2018-07-20T22:18:35.709Z,3.50
2018-07-20T22:21:04.028Z,3.00
2018-07-20T22:23:32.316Z,3.37
2018-07-20T22:26:03.444Z,3.30
2018-07-20T22:28:31.733Z,3.23
2018-07-20T22:31:00.066Z,3.47
2018-07-20T22:33:28.376Z,3.50
2018-07-20T22:35:56.622Z,3.37
2018-07-20T22:38:24.919Z,3.93
2018-07-20T22:40:53.220Z,3.23
2018-07-20T22:43:21.440Z,3.47
2018-07-20T22:45:49.641Z,3.30
2018-07-20T22:48:17.992Z,3.17
2018-07-20T22:50:46.268Z,3.67
2018-07-20T22:53:14.577Z,4.33
2018-07-20T22:55:42.862Z,3.67
2018-07-20T22:58:11.151Z,3.73
2018-07-20T23:00:39.411Z,4.00
2018-07-20T23:03:07.697Z,4.30
2018-07-20T23:05:39.262Z,3.60
2018-07-20T23:08:07.555Z,3.50
2018-07-20T23:10:35.831Z,3.40
2018-07-20T23:13:04.067Z,3.53
2018-07-20T23:15:32.351Z,3.60
2018-07-20T23:18:00.628Z,3.40
2018-07-20T23:20:28.844Z,3.53
2018-07-20T23:22:57.130Z,3.40
2018-07-20T23:25:25.367Z,3.53
2018-07-20T23:27:53.616Z,3.37
2018-07-20T23:30:21.888Z,3.40
2018-07-20T23:32:49.901Z,3.40
2018-07-20T23:35:18.192Z,3.50
2018-07-20T23:37:46.584Z,3.60
2018-07-20T23:42:49.027Z,3.20
2018-07-20T23:45:17.310Z,3.30
2018-07-20T23:47:45.530Z,3.40
2018-07-20T23:50:13.775Z,3.43
2018-07-20T23:52:42.099Z,3.00
2018-07-20T23:55:10.375Z,3.03
2018-07-20T23:57:41.976Z,3.37
